createdAt,value
2022-07-26T00:01:37.898Z,19.62
2022-07-26T00:04:04.669Z,19.65
2022-07-26T00:06:31.276Z,19.61
2022-07-26T00:08:57.784Z,19.54
2022-07-26T00:11:25.617Z,19.60
2022-07-26T00:13:52.254Z,19.42
2022-07-26T00:16:19.343Z,19.26
2022-07-26T00:18:47.505Z,19.22
2022-07-26T00:21:14.075Z,19.16
2022-07-26T00:23:40.681Z,19.23
2022-07-26T00:26:13.063Z,19.26
2022-07-26T00:28:43.892Z,19.16
2022-07-26T00:31:12.166Z,19.00
2022-07-26T00:33:39.244Z,19.03
2022-07-26T00:36:07.581Z,19.12
2022-07-26T00:38:34.405Z,19.09
2022-07-26T00:41:01.996Z,19.17
2022-07-26T00:43:28.573Z,19.16
2022-07-26T00:45:55.148Z,19.17
2022-07-26T00:48:21.711Z,19.15
2022-07-26T00:50:48.295Z,19.06
2022-07-26T00:53:14.937Z,18.94
2022-07-26T00:55:41.729Z,18.83
2022-07-26T00:58:08.354Z,18.70
2022-07-26T01:00:35.117Z,18.67
2022-07-26T01:03:02.658Z,18.61
2022-07-26T01:05:29.293Z,18.59
2022-07-26T01:07:56.488Z,18.56
2022-07-26T01:10:23.077Z,18.55
2022-07-26T01:12:49.896Z,18.50
2022-07-26T01:15:17.007Z,18.44
2022-07-26T01:17:44.083Z,18.44
2022-07-26T01:20:12.524Z,18.54
2022-07-26T01:22:40.154Z,18.51
2022-07-26T01:25:07.597Z,18.57
2022-07-26T01:27:39.165Z,18.65
2022-07-26T01:30:09.468Z,18.67
2022-07-26T01:32:36.227Z,18.67
2022-07-26T01:35:04.690Z,18.70
2022-07-26T01:37:31.223Z,18.71
2022-07-26T01:39:57.776Z,18.70
2022-07-26T01:42:24.321Z,18.72
2022-07-26T01:44:50.901Z,18.69
2022-07-26T01:47:17.522Z,18.58
2022-07-26T01:49:44.080Z,18.67
2022-07-26T01:52:10.684Z,18.63
2022-07-26T01:54:37.241Z,18.63
2022-07-26T01:57:03.957Z,18.55
2022-07-26T01:59:30.576Z,18.64
2022-07-26T02:01:57.230Z,18.66
2022-07-26T02:04:42.273Z,18.71
2022-07-26T02:07:10.774Z,18.84
2022-07-26T02:09:40.128Z,18.85
2022-07-26T02:12:07.131Z,18.78
2022-07-26T02:14:33.707Z,18.74
2022-07-26T02:17:00.412Z,18.62
2022-07-26T02:19:30.953Z,18.68
2022-07-26T02:21:58.755Z,18.70
2022-07-26T02:24:28.963Z,18.76
2022-07-26T02:26:56.945Z,18.81
2022-07-26T02:29:23.741Z,18.80
2022-07-26T02:31:50.845Z,18.84
2022-07-26T02:34:17.874Z,18.87
2022-07-26T02:36:44.676Z,18.88
2022-07-26T02:39:12.228Z,18.92
2022-07-26T02:41:38.842Z,18.89
2022-07-26T02:44:06.373Z,18.93
2022-07-26T02:46:33.203Z,18.90
2022-07-26T02:49:00.842Z,18.97
2022-07-26T02:51:28.035Z,18.93
2022-07-26T02:53:54.725Z,18.99
2022-07-26T02:56:21.533Z,19.05
2022-07-26T02:58:48.094Z,19.07
2022-07-26T03:01:14.651Z,19.02
2022-07-26T03:03:43.115Z,19.08
2022-07-26T03:06:11.546Z,19.12
2022-07-26T03:08:38.119Z,19.05
2022-07-26T03:11:07.879Z,18.95
2022-07-26T03:13:38.311Z,18.93
2022-07-26T03:16:05.491Z,19.00
2022-07-26T03:18:32.071Z,18.95
2022-07-26T03:20:58.802Z,18.98
2022-07-26T03:23:25.638Z,18.87
2022-07-26T03:25:52.214Z,18.92
2022-07-26T03:28:19.619Z,18.94
2022-07-26T03:30:46.382Z,18.83
2022-07-26T03:33:12.980Z,18.81
2022-07-26T03:35:39.596Z,18.79
2022-07-26T03:38:06.980Z,18.82
2022-07-26T03:40:33.582Z,18.88
2022-07-26T03:43:00.110Z,18.90
2022-07-26T03:45:26.677Z,18.85
2022-07-26T03:47:54.080Z,18.93
2022-07-26T03:50:20.643Z,18.98
2022-07-26T03:52:47.259Z,18.97
2022-07-26T03:55:32.981Z,18.97
2022-07-26T03:57:59.566Z,18.99
2022-07-26T04:00:26.601Z,18.87
2022-07-26T04:02:53.188Z,18.79
2022-07-26T04:05:23.353Z,18.84
2022-07-26T04:07:53.393Z,18.91
2022-07-26T04:10:20.462Z,18.92
2022-07-26T04:12:46.969Z,18.97
2022-07-26T04:15:13.512Z,19.00
2022-07-26T04:17:41.540Z,19.04
2022-07-26T04:20:10.296Z,19.04
2022-07-26T04:22:38.357Z,19.01
2022-07-26T04:25:06.745Z,19.01
2022-07-26T04:27:34.068Z,19.06
2022-07-26T04:30:00.776Z,19.02
2022-07-26T04:32:27.533Z,19.09
2022-07-26T04:34:54.095Z,19.06
2022-07-26T04:37:20.694Z,19.13
2022-07-26T04:39:51.666Z,19.12
2022-07-26T04:42:21.139Z,19.19
2022-07-26T04:44:47.684Z,19.21
2022-07-26T04:47:14.260Z,19.28
2022-07-26T04:49:40.807Z,19.33
2022-07-26T04:52:07.396Z,19.42
2022-07-26T04:54:33.935Z,19.42
2022-07-26T04:57:00.510Z,19.43
2022-07-26T04:59:27.041Z,19.37
2022-07-26T05:01:53.642Z,19.50
2022-07-26T05:04:20.225Z,19.57
2022-07-26T05:06:46.745Z,19.57
2022-07-26T05:09:13.313Z,19.44
2022-07-26T05:11:40.020Z,19.38
2022-07-26T05:14:06.924Z,19.44
2022-07-26T05:16:33.663Z,19.54
2022-07-26T05:19:05.845Z,19.54
2022-07-26T05:21:32.362Z,19.52
2022-07-26T05:23:58.979Z,19.61
2022-07-26T05:26:25.504Z,19.61
2022-07-26T05:28:52.105Z,19.51
2022-07-26T05:31:18.682Z,19.55
2022-07-26T05:33:45.364Z,19.60
2022-07-26T05:36:11.966Z,19.83
2022-07-26T05:38:38.639Z,19.95
2022-07-26T05:41:05.679Z,19.97
2022-07-26T05:43:41.326Z,20.10
2022-07-26T05:46:09.873Z,20.09
2022-07-26T05:48:36.642Z,20.00
2022-07-26T05:51:03.311Z,20.14
2022-07-26T05:53:29.854Z,20.14
2022-07-26T05:55:56.396Z,20.27
2022-07-26T05:58:22.902Z,20.33
2022-07-26T06:00:49.560Z,20.38
2022-07-26T06:03:22.053Z,20.79
2022-07-26T06:05:53.539Z,20.94
2022-07-26T06:08:21.262Z,20.82
2022-07-26T06:10:48.779Z,21.04
2022-07-26T06:13:15.652Z,21.10
2022-07-26T06:15:43.112Z,21.30
2022-07-26T06:18:10.177Z,21.16
2022-07-26T06:20:41.768Z,21.27
2022-07-26T06:23:08.474Z,21.32
2022-07-26T06:25:35.347Z,21.10
2022-07-26T06:28:03.975Z,21.26
2022-07-26T06:30:30.634Z,20.94
2022-07-26T06:32:57.325Z,20.85
2022-07-26T06:35:24.313Z,20.87
2022-07-26T06:37:51.234Z,20.88
2022-07-26T06:40:17.797Z,20.86
2022-07-26T06:42:44.329Z,20.70
2022-07-26T06:45:11.296Z,20.98
2022-07-26T06:47:37.878Z,20.89
2022-07-26T06:50:04.759Z,21.14
2022-07-26T06:52:32.880Z,21.30
2022-07-26T06:55:00.389Z,21.63
2022-07-26T06:57:27.297Z,21.69
2022-07-26T06:59:53.903Z,21.75
2022-07-26T07:02:21.110Z,21.64
2022-07-26T07:04:47.780Z,21.73
2022-07-26T07:07:14.474Z,21.66
2022-07-26T07:09:41.595Z,21.82
2022-07-26T07:12:10.245Z,21.73
2022-07-26T07:14:37.569Z,21.74
2022-07-26T07:17:12.114Z,21.81
2022-07-26T07:19:39.848Z,22.12
2022-07-26T07:22:06.532Z,22.56
2022-07-26T07:24:33.067Z,22.62
2022-07-26T07:27:02.677Z,22.75
2022-07-26T07:29:29.303Z,22.75
2022-07-26T07:31:56.505Z,23.06
2022-07-26T07:34:24.096Z,23.06
2022-07-26T07:36:51.240Z,22.97
2022-07-26T07:39:18.621Z,22.72
2022-07-26T07:41:46.960Z,23.10
2022-07-26T07:44:14.005Z,23.17
2022-07-26T07:46:40.883Z,23.37
2022-07-26T07:49:08.026Z,23.65
2022-07-26T07:51:36.235Z,23.59
2022-07-26T07:54:05.592Z,23.53
2022-07-26T07:56:32.988Z,24.09
2022-07-26T07:58:59.613Z,23.65
2022-07-26T08:01:39.779Z,23.85
2022-07-26T08:04:07.591Z,23.81
2022-07-26T08:06:34.252Z,23.85
2022-07-26T08:09:00.917Z,23.34
2022-07-26T08:11:30.364Z,23.12
2022-07-26T08:13:56.893Z,22.75
2022-07-26T08:16:23.695Z,22.89
2022-07-26T08:18:57.875Z,22.53
2022-07-26T08:21:28.218Z,22.76
2022-07-26T08:23:56.491Z,22.84
2022-07-26T08:26:23.055Z,22.43
2022-07-26T08:28:58.506Z,22.80
2022-07-26T08:31:27.718Z,22.88
2022-07-26T08:33:54.357Z,23.05
2022-07-26T08:36:20.939Z,23.55
2022-07-26T08:38:48.337Z,23.82
2022-07-26T08:41:17.232Z,23.62
2022-07-26T08:43:52.410Z,23.58
2022-07-26T08:46:25.217Z,23.67
2022-07-26T08:48:53.301Z,23.66
2022-07-26T08:51:22.681Z,23.78
2022-07-26T08:53:50.665Z,23.99
2022-07-26T08:56:17.250Z,24.11
2022-07-26T08:58:43.925Z,24.39
2022-07-26T09:01:13.096Z,24.02
2022-07-26T09:03:41.673Z,23.51
2022-07-26T09:06:22.751Z,23.40
2022-07-26T09:09:09.660Z,22.83
2022-07-26T09:11:36.714Z,22.82
2022-07-26T09:14:07.323Z,22.54
2022-07-26T09:16:39.011Z,22.91
2022-07-26T09:19:24.537Z,22.86
2022-07-26T09:21:52.193Z,22.76
2022-07-26T09:24:36.042Z,22.56
2022-07-26T09:27:05.524Z,22.67
2022-07-26T09:29:49.530Z,22.77
2022-07-26T09:32:26.653Z,22.82
2022-07-26T09:35:24.080Z,22.82
2022-07-26T09:37:55.925Z,23.11
2022-07-26T09:40:22.504Z,23.06
2022-07-26T09:43:04.277Z,23.55
2022-07-26T09:45:32.938Z,23.42
2022-07-26T09:48:00.305Z,23.59
2022-07-26T09:50:29.383Z,23.68
2022-07-26T09:53:02.170Z,24.11
2022-07-26T09:55:37.745Z,24.14
2022-07-26T09:58:10.129Z,23.93
2022-07-26T10:00:36.666Z,24.36
2022-07-26T10:03:03.255Z,24.38
2022-07-26T10:05:29.998Z,24.48
2022-07-26T10:07:59.125Z,24.74
2022-07-26T10:10:31.599Z,24.39
2022-07-26T10:13:02.800Z,24.29
2022-07-26T10:15:49.432Z,24.12
2022-07-26T10:18:38.171Z,24.39
2022-07-26T10:21:21.958Z,25.54
2022-07-26T10:23:51.246Z,25.12
2022-07-26T10:26:33.021Z,25.15
2022-07-26T10:29:17.574Z,24.75
2022-07-26T10:31:45.970Z,24.34
2022-07-26T10:34:31.497Z,24.34
2022-07-26T10:36:59.849Z,24.53
2022-07-26T10:39:27.094Z,24.84
2022-07-26T10:42:04.964Z,24.79
2022-07-26T10:44:36.528Z,24.80
2022-07-26T10:47:08.775Z,25.26
2022-07-26T10:49:42.587Z,24.97
2022-07-26T10:52:10.801Z,24.66
2022-07-26T10:55:04.989Z,24.53
2022-07-26T10:57:35.052Z,24.48
2022-07-26T11:00:09.952Z,24.12
2022-07-26T11:02:37.113Z,24.07
2022-07-26T11:05:25.947Z,24.07
2022-07-26T11:08:10.755Z,24.30
2022-07-26T11:10:41.867Z,24.70
2022-07-26T11:13:17.523Z,24.73
2022-07-26T11:15:49.844Z,25.47
2022-07-26T11:18:18.435Z,25.37
2022-07-26T11:20:47.537Z,25.37
2022-07-26T11:23:34.145Z,25.50
2022-07-26T11:26:07.506Z,25.87
2022-07-26T11:28:53.547Z,26.06
2022-07-26T11:31:23.670Z,26.88
2022-07-26T11:34:18.443Z,27.27
2022-07-26T11:36:46.157Z,26.66
2022-07-26T11:39:15.111Z,26.70
2022-07-26T11:41:44.583Z,26.76
2022-07-26T11:44:17.710Z,26.54
2022-07-26T11:46:47.973Z,26.07
2022-07-26T11:49:17.531Z,25.87
2022-07-26T11:51:58.233Z,25.75
2022-07-26T11:54:29.426Z,26.02
2022-07-26T11:56:59.377Z,25.77
2022-07-26T11:59:28.912Z,26.09
2022-07-26T12:01:56.490Z,26.49
2022-07-26T12:04:29.723Z,26.39
2022-07-26T12:06:58.425Z,26.37
2022-07-26T12:09:52.056Z,25.86
2022-07-26T12:12:24.193Z,25.97
2022-07-26T12:15:02.100Z,25.89
2022-07-26T12:17:34.954Z,25.81
2022-07-26T12:20:18.499Z,26.30
2022-07-26T12:23:00.746Z,27.68
2022-07-26T12:25:30.930Z,28.19
2022-07-26T12:27:57.809Z,29.48
2022-07-26T12:30:25.584Z,29.74
2022-07-26T12:33:02.288Z,31.08
2022-07-26T12:35:33.464Z,30.55
2022-07-26T12:38:00.129Z,29.60
2022-07-26T12:40:29.519Z,29.39
2022-07-26T12:43:02.452Z,29.22
2022-07-26T12:45:34.016Z,28.28
2022-07-26T12:48:03.178Z,29.34
2022-07-26T12:50:32.827Z,30.69
2022-07-26T12:53:02.452Z,30.79
2022-07-26T12:55:29.153Z,30.66
2022-07-26T12:57:55.970Z,31.10
2022-07-26T13:00:24.195Z,29.66
2022-07-26T13:02:54.771Z,30.12
2022-07-26T13:05:21.652Z,30.42
2022-07-26T13:07:48.325Z,30.54
2022-07-26T13:10:32.398Z,30.32
2022-07-26T13:12:59.962Z,30.63
2022-07-26T13:15:37.235Z,31.55
2022-07-26T13:18:08.901Z,31.43
2022-07-26T13:20:39.293Z,31.31
2022-07-26T13:23:11.649Z,32.35
2022-07-26T13:25:40.783Z,31.25
2022-07-26T13:28:15.832Z,30.25
2022-07-26T13:30:43.600Z,29.29
2022-07-26T13:33:10.680Z,29.55
2022-07-26T13:35:39.332Z,29.14
2022-07-26T13:38:08.105Z,28.88
2022-07-26T13:40:34.728Z,28.92
2022-07-26T13:43:01.485Z,29.37
2022-07-26T13:45:29.136Z,28.64
2022-07-26T13:47:56.093Z,28.34
2022-07-26T13:50:22.719Z,28.70
2022-07-26T13:52:49.466Z,28.33
2022-07-26T13:55:16.174Z,28.05
2022-07-26T13:57:53.159Z,28.06
2022-07-26T14:00:25.961Z,28.09
2022-07-26T14:02:52.672Z,27.77
2022-07-26T14:05:20.333Z,27.52
2022-07-26T14:07:46.906Z,27.44
2022-07-26T14:10:13.563Z,27.56
2022-07-26T14:12:40.840Z,27.60
2022-07-26T14:15:15.197Z,27.09
2022-07-26T14:17:47.297Z,26.61
2022-07-26T14:20:14.956Z,26.86
2022-07-26T14:22:41.549Z,26.56
2022-07-26T14:25:08.501Z,26.27
2022-07-26T14:27:35.055Z,26.01
2022-07-26T14:30:01.888Z,25.95
2022-07-26T14:32:28.457Z,26.24
2022-07-26T14:34:54.989Z,26.08
2022-07-26T14:37:42.244Z,26.14
2022-07-26T14:40:08.626Z,26.03
2022-07-26T14:42:35.163Z,26.27
2022-07-26T14:45:01.885Z,26.64
2022-07-26T14:47:28.448Z,26.52
2022-07-26T14:49:55.007Z,26.66
2022-07-26T14:52:21.559Z,26.36
2022-07-26T14:54:48.213Z,26.36
2022-07-26T14:57:14.819Z,26.43
2022-07-26T14:59:41.383Z,26.31
2022-07-26T15:02:10.844Z,25.98
2022-07-26T15:04:37.475Z,25.95
2022-07-26T15:07:04.067Z,26.32
2022-07-26T15:09:32.040Z,26.37
2022-07-26T15:11:59.599Z,26.15
2022-07-26T16:00:56.815Z,24.74
2022-07-26T16:03:23.680Z,24.80
2022-07-26T16:05:50.339Z,24.82
2022-07-26T16:08:16.877Z,24.86
2022-07-26T16:10:43.545Z,24.91
2022-07-26T16:13:10.105Z,24.86
2022-07-26T16:15:36.639Z,24.49
2022-07-26T16:18:06.423Z,24.43
2022-07-26T16:20:33.318Z,24.39
2022-07-26T16:23:00.168Z,24.20
2022-07-26T16:25:26.683Z,24.17
2022-07-26T16:27:53.390Z,24.00
2022-07-26T16:30:21.366Z,24.07
2022-07-26T16:32:47.946Z,24.19
2022-07-26T16:35:14.965Z,24.06
2022-07-26T16:37:42.221Z,24.02
2022-07-26T16:40:09.476Z,23.81
2022-07-26T16:42:36.056Z,23.65
2022-07-26T16:45:03.044Z,23.61
2022-07-26T16:47:29.641Z,23.46
2022-07-26T16:49:56.212Z,23.40
2022-07-26T16:52:22.913Z,23.27
2022-07-26T16:54:49.433Z,23.19
2022-07-26T16:57:15.951Z,23.17
2022-07-26T16:59:42.482Z,23.05
2022-07-26T17:02:09.235Z,22.96
2022-07-26T17:04:36.329Z,23.04
2022-07-26T17:07:23.954Z,22.91
2022-07-26T17:09:49.724Z,22.75
2022-07-26T17:12:18.614Z,22.83
2022-07-26T17:14:45.297Z,22.78
2022-07-26T17:17:11.977Z,22.58
2022-07-26T17:19:38.827Z,22.65
2022-07-26T17:22:05.416Z,22.54
2022-07-26T17:24:31.975Z,22.49
2022-07-26T17:26:58.506Z,22.53
2022-07-26T17:29:25.073Z,22.36
2022-07-26T17:31:56.351Z,22.40
2022-07-26T17:34:23.104Z,22.43
2022-07-26T17:36:58.955Z,22.34
2022-07-26T17:39:51.632Z,22.42
2022-07-26T17:42:14.919Z,22.47
2022-07-26T17:44:42.563Z,22.44
2022-07-26T17:47:27.909Z,22.32
2022-07-26T17:50:08.939Z,22.32
2022-07-26T17:52:40.957Z,22.30
2022-07-26T17:55:07.774Z,22.31
2022-07-26T17:57:34.388Z,22.28
2022-07-26T18:00:06.229Z,22.28
2022-07-26T18:02:33.326Z,22.25
2022-07-26T18:04:59.904Z,22.14
2022-07-26T18:07:26.523Z,22.01
2022-07-26T18:09:53.084Z,21.96
2022-07-26T18:12:19.819Z,21.92
2022-07-26T18:14:46.404Z,21.89
2022-07-26T18:17:12.996Z,21.88
2022-07-26T18:19:39.560Z,21.84
2022-07-26T18:22:06.496Z,21.82
2022-07-26T18:24:33.185Z,21.83
2022-07-26T18:26:59.785Z,21.75
2022-07-26T18:29:26.326Z,21.70
2022-07-26T18:31:52.925Z,21.61
2022-07-26T18:34:19.538Z,21.60
2022-07-26T18:36:46.207Z,21.63
2022-07-26T18:39:13.212Z,21.54
2022-07-26T18:41:39.944Z,21.50
2022-07-26T18:44:06.569Z,21.39
2022-07-26T18:46:33.638Z,21.34
2022-07-26T18:49:00.677Z,21.30
2022-07-26T18:51:29.013Z,21.27
2022-07-26T18:53:55.846Z,21.22
2022-07-26T18:56:23.313Z,21.17
2022-07-26T18:58:50.368Z,21.14
2022-07-26T19:01:17.016Z,21.07
2022-07-26T19:03:43.644Z,21.03
2022-07-26T19:06:11.824Z,20.95
2022-07-26T19:08:38.547Z,20.89
2022-07-26T19:11:05.156Z,20.86
2022-07-26T19:13:31.679Z,20.78
2022-07-26T19:15:58.487Z,20.74
2022-07-26T19:18:25.179Z,20.74
2022-07-26T19:20:51.751Z,20.65
2022-07-26T19:23:18.303Z,20.54
2022-07-26T19:25:44.931Z,20.45
2022-07-26T19:28:13.887Z,20.37
2022-07-26T19:30:40.728Z,20.29
2022-07-26T19:33:07.368Z,20.12
2022-07-26T19:35:33.918Z,20.02
2022-07-26T19:38:00.551Z,19.85
2022-07-26T19:40:27.315Z,19.73
2022-07-26T19:42:54.000Z,19.60
2022-07-26T19:45:22.433Z,19.52
2022-07-26T19:47:50.068Z,19.37
2022-07-26T19:50:16.617Z,19.22
2022-07-26T19:52:43.176Z,19.15
2022-07-26T19:55:10.304Z,19.10
2022-07-26T19:57:37.144Z,18.95
2022-07-26T20:00:08.272Z,18.92
2022-07-26T20:02:35.050Z,18.87
2022-07-26T20:05:01.730Z,18.78
2022-07-26T20:07:30.986Z,18.69
2022-07-26T20:09:57.476Z,18.74
2022-07-26T20:12:24.062Z,18.73
2022-07-26T20:14:50.652Z,18.77
2022-07-26T20:17:17.421Z,18.81
2022-07-26T20:19:44.028Z,18.83
2022-07-26T20:22:11.096Z,18.85
2022-07-26T20:24:38.266Z,18.79
2022-07-26T20:27:06.363Z,18.78
2022-07-26T20:29:33.217Z,18.67
2022-07-26T20:31:59.881Z,18.53
2022-07-26T20:34:26.517Z,18.42
2022-07-26T20:36:54.812Z,18.33
2022-07-26T20:39:21.722Z,18.26
2022-07-26T20:41:48.499Z,18.21
2022-07-26T20:44:16.571Z,18.07
2022-07-26T20:46:45.390Z,17.93
2022-07-26T20:49:12.218Z,17.94
2022-07-26T20:51:39.102Z,17.82
2022-07-26T20:54:06.802Z,17.78
2022-07-26T20:56:33.844Z,17.70
2022-07-26T20:59:02.499Z,17.70
2022-07-26T21:01:33.141Z,17.65
2022-07-26T21:03:59.794Z,17.56
2022-07-26T21:06:29.049Z,17.44
2022-07-26T21:08:57.731Z,17.45
2022-07-26T21:11:24.502Z,17.45
2022-07-26T21:13:51.050Z,17.36
2022-07-26T21:16:21.630Z,17.32
2022-07-26T21:18:52.758Z,17.28
2022-07-26T21:21:21.075Z,17.20
2022-07-26T21:23:49.501Z,17.06
2022-07-26T21:26:16.091Z,17.01
2022-07-26T21:28:42.750Z,16.90
2022-07-26T21:31:09.299Z,17.03
2022-07-26T21:33:44.137Z,16.87
2022-07-26T21:36:10.951Z,16.85
2022-07-26T21:38:37.505Z,16.70
2022-07-26T21:41:04.052Z,16.73
2022-07-26T21:43:30.601Z,16.59
2022-07-26T21:45:59.082Z,16.55
2022-07-26T21:48:25.696Z,16.44
2022-07-26T21:50:52.729Z,16.37
2022-07-26T21:53:19.245Z,16.35
2022-07-26T21:55:46.076Z,16.33
2022-07-26T21:58:12.610Z,16.30
2022-07-26T22:00:41.686Z,16.33
2022-07-26T22:03:10.159Z,16.38
2022-07-26T22:05:39.820Z,16.34
2022-07-26T22:08:12.654Z,16.35
2022-07-26T22:10:45.107Z,16.27
2022-07-26T22:13:14.153Z,16.22
2022-07-26T22:15:41.797Z,16.21
2022-07-26T22:18:13.732Z,16.13
2022-07-26T22:20:40.790Z,16.14
2022-07-26T22:23:09.575Z,16.13
2022-07-26T22:25:37.455Z,16.13
2022-07-26T22:28:07.305Z,16.01
2022-07-26T22:30:34.381Z,15.95
2022-07-26T22:33:03.088Z,15.90
2022-07-26T22:35:35.032Z,15.85
2022-07-26T22:38:09.047Z,15.85
2022-07-26T22:40:36.273Z,15.89
2022-07-26T22:43:03.667Z,15.83
2022-07-26T22:45:32.024Z,15.70
2022-07-26T22:48:02.238Z,15.71
2022-07-26T22:50:29.178Z,15.68
2022-07-26T22:52:56.135Z,15.72
2022-07-26T22:55:23.072Z,15.73
2022-07-26T22:57:50.161Z,15.69
2022-07-26T23:00:18.546Z,15.63
2022-07-26T23:02:45.367Z,15.59
2022-07-26T23:05:14.142Z,15.61
2022-07-26T23:07:40.778Z,15.51
2022-07-26T23:10:09.132Z,15.54
2022-07-26T23:12:36.354Z,15.48
2022-07-26T23:15:04.456Z,15.59
2022-07-26T23:17:31.000Z,15.54
2022-07-26T23:19:57.669Z,15.57
2022-07-26T23:22:24.218Z,15.59
2022-07-26T23:24:50.775Z,15.71
2022-07-26T23:27:20.135Z,15.68
2022-07-26T23:29:48.281Z,15.72
2022-07-26T23:32:15.738Z,15.72
2022-07-26T23:34:42.352Z,15.73
2022-07-26T23:37:08.977Z,15.70
2022-07-26T23:39:35.760Z,15.67
2022-07-26T23:42:02.997Z,15.62
2022-07-26T23:44:31.024Z,15.44
2022-07-26T23:46:58.675Z,15.39
2022-07-26T23:49:25.988Z,15.37
2022-07-26T23:51:52.684Z,15.19
2022-07-26T23:54:19.378Z,15.20
2022-07-26T23:56:45.923Z,15.18
2022-07-26T23:59:13.253Z,15.18
